createdAt,value
2019-02-27T00:00:43.817Z,103320.57
2019-02-27T00:03:13.595Z,103316.28
2019-02-27T00:05:45.588Z,103317.09
2019-02-27T00:08:17.569Z,103314.84
2019-02-27T00:10:49.530Z,103317.12
2019-02-27T00:13:24.670Z,103313.07
2019-02-27T00:15:55.160Z,103314.44
2019-02-27T00:18:27.697Z,103311.66
2019-02-27T00:20:59.666Z,103301.84
2019-02-27T00:23:31.692Z,103299.50
2019-02-27T00:26:04.202Z,103301.28
2019-02-27T00:28:36.177Z,103302.28
2019-02-27T00:31:11.249Z,103305.70
2019-02-27T00:33:42.111Z,103297.57
2019-02-27T00:36:14.068Z,103299.98
2019-02-27T00:38:46.071Z,103293.96
2019-02-27T00:41:18.027Z,103293.33
2019-02-27T00:43:50.010Z,103300.27
2019-02-27T00:46:21.975Z,103302.97
2019-02-27T00:48:53.950Z,103294.84
2019-02-27T00:51:25.925Z,103295.90
2019-02-27T00:53:58.447Z,103296.53
2019-02-27T00:56:30.965Z,103296.64
2019-02-27T00:59:03.220Z,103285.33
2019-02-27T01:01:35.204Z,103285.67
2019-02-27T01:04:07.591Z,103282.20
2019-02-27T01:06:39.563Z,103278.48
2019-02-27T01:09:11.656Z,103274.68
2019-02-27T01:11:43.652Z,103271.11
2019-02-27T01:14:15.631Z,103267.88
2019-02-27T01:16:49.941Z,103266.09
2019-02-27T01:19:21.267Z,103269.20
2019-02-27T01:21:53.264Z,103265.47
2019-02-27T01:24:25.229Z,103263.56
2019-02-27T01:26:57.486Z,103260.56
2019-02-27T01:29:29.463Z,103260.33
2019-02-27T01:32:01.830Z,103257.33
2019-02-27T01:34:33.795Z,103254.82
2019-02-27T01:37:05.789Z,103255.26
2019-02-27T01:39:38.726Z,103254.25
2019-02-27T01:42:10.702Z,103257.61
2019-02-27T01:44:46.650Z,103253.83
2019-02-27T01:47:19.994Z,103248.23
2019-02-27T01:49:51.958Z,103243.33
2019-02-27T01:52:24.257Z,103238.06
2019-02-27T01:54:56.296Z,103238.33
2019-02-27T01:57:28.621Z,103232.74
2019-02-27T02:00:00.964Z,103235.92
2019-02-27T02:02:34.926Z,103230.37
2019-02-27T02:05:07.030Z,103227.22
2019-02-27T02:07:40.282Z,103224.15
2019-02-27T02:10:12.802Z,103223.04
2019-02-27T02:12:48.144Z,103217.83
2019-02-27T02:15:50.318Z,103217.61
2019-02-27T02:18:36.249Z,103217.22
2019-02-27T02:21:18.681Z,103212.44
2019-02-27T02:24:16.072Z,103202.56
2019-02-27T02:26:55.468Z,103209.10
2019-02-27T02:29:57.321Z,103209.14
2019-02-27T02:32:54.787Z,103206.92
2019-02-27T02:35:46.839Z,103199.72
2019-02-27T02:38:44.191Z,103193.70
2019-02-27T02:41:23.555Z,103187.16
2019-02-27T02:44:14.426Z,103188.67
2019-02-27T02:47:21.290Z,103188.19
2019-02-27T02:50:39.656Z,103180.59
2019-02-27T02:53:27.897Z,103177.26
2019-02-27T02:56:24.825Z,103181.80
2019-02-27T02:59:24.542Z,103184.58
2019-02-27T03:02:03.700Z,103172.80
2019-02-27T03:05:04.316Z,103175.33
2019-02-27T03:08:19.788Z,103173.40
2019-02-27T03:11:19.050Z,103165.75
2019-02-27T03:14:28.871Z,103161.55
2019-02-27T03:17:38.424Z,103157.83
2019-02-27T03:20:37.564Z,103142.55
2019-02-27T03:23:19.665Z,103133.22
2019-02-27T03:26:20.289Z,103134.61
2019-02-27T03:29:15.504Z,103133.66
2019-02-27T03:32:01.135Z,103133.98
2019-02-27T03:35:05.953Z,103127.58
2019-02-27T03:37:56.871Z,103122.52
2019-02-27T03:41:07.542Z,103120.25
2019-02-27T03:44:20.694Z,103116.69
2019-02-27T03:47:15.633Z,103114.28
2019-02-27T03:49:55.786Z,103113.84
2019-02-27T03:52:48.857Z,103110.61
2019-02-27T03:55:56.609Z,103109.38
2019-02-27T03:58:35.988Z,103109.50
2019-02-27T04:01:31.801Z,103106.58
2019-02-27T04:04:58.098Z,103100.58
2019-02-27T04:07:46.477Z,103094.83
2019-02-27T04:10:18.434Z,103089.51
2019-02-27T04:12:51.651Z,103084.92
2019-02-27T04:15:24.053Z,103081.42
2019-02-27T04:17:54.370Z,103086.04
2019-02-27T04:20:26.337Z,103077.27
2019-02-27T04:22:58.290Z,103077.50
2019-02-27T04:25:31.545Z,103079.28
2019-02-27T04:28:04.212Z,103074.41
2019-02-27T04:30:36.206Z,103070.09
2019-02-27T04:33:08.208Z,103065.38
2019-02-27T04:35:40.244Z,103064.15
2019-02-27T04:38:12.230Z,103058.81
2019-02-27T04:40:44.769Z,103064.34
2019-02-27T04:43:16.941Z,103063.39
2019-02-27T04:45:48.930Z,103061.33
2019-02-27T04:48:20.874Z,103058.98
2019-02-27T04:50:53.235Z,103052.91
2019-02-27T04:53:25.182Z,103054.30
2019-02-27T04:55:57.164Z,103051.14
2019-02-27T04:58:31.222Z,103050.58
2019-02-27T05:01:02.857Z,103051.69
2019-02-27T05:03:34.929Z,103056.16
2019-02-27T05:06:07.197Z,103049.34
2019-02-27T05:08:39.162Z,103052.69
2019-02-27T05:11:13.949Z,103042.97
2019-02-27T05:13:44.771Z,103046.47
2019-02-27T05:16:16.729Z,103051.34
2019-02-27T05:18:48.864Z,103047.05
2019-02-27T05:21:20.911Z,103051.09
2019-02-27T05:23:53.257Z,103052.48
2019-02-27T05:26:27.254Z,103050.14
2019-02-27T05:28:59.361Z,103046.34
2019-02-27T05:31:31.318Z,103041.97
2019-02-27T05:34:03.298Z,103037.80
2019-02-27T05:36:35.266Z,103035.93
2019-02-27T05:39:08.154Z,103033.99
2019-02-27T05:41:40.135Z,103043.23
2019-02-27T05:44:12.097Z,103035.86
2019-02-27T05:46:44.406Z,103037.66
2019-02-27T05:49:16.682Z,103031.02
2019-02-27T05:51:48.648Z,103027.06
2019-02-27T05:54:20.603Z,103034.12
2019-02-27T05:56:52.569Z,103028.20
2019-02-27T05:59:28.939Z,103028.12
2019-02-27T06:01:58.219Z,103022.77
2019-02-27T06:04:30.173Z,103027.87
2019-02-27T06:07:02.148Z,103027.22
2019-02-27T06:09:34.111Z,103022.91
2019-02-27T06:12:06.881Z,103019.57
2019-02-27T06:14:39.604Z,103019.06
2019-02-27T06:17:12.844Z,103015.83
2019-02-27T06:19:45.242Z,103019.37
2019-02-27T06:22:17.204Z,103022.78
2019-02-27T06:24:49.170Z,103012.02
2019-02-27T06:27:21.139Z,103019.31
2019-02-27T06:29:56.635Z,103018.10
2019-02-27T06:32:27.434Z,103017.37
2019-02-27T06:34:59.970Z,103014.67
2019-02-27T06:37:32.084Z,103006.22
2019-02-27T06:40:07.466Z,103005.38
2019-02-27T06:42:40.442Z,102992.93
2019-02-27T06:45:17.807Z,102991.02
2019-02-27T06:47:49.783Z,102996.85
2019-02-27T06:50:25.202Z,102999.45
2019-02-27T06:52:55.407Z,102996.83
2019-02-27T06:55:28.072Z,102989.75
2019-02-27T06:58:01.106Z,102987.92
2019-02-27T07:00:36.724Z,102980.33
2019-02-27T07:03:06.886Z,102979.16
2019-02-27T07:05:38.838Z,102975.41
2019-02-27T07:08:10.808Z,102982.37
2019-02-27T07:10:42.940Z,102972.56
2019-02-27T07:13:15.264Z,102971.73
2019-02-27T07:15:48.294Z,102967.33
2019-02-27T07:18:21.607Z,102969.59
2019-02-27T07:20:55.748Z,102968.09
2019-02-27T07:23:27.921Z,102964.69
2019-02-27T07:25:59.919Z,102964.42
2019-02-27T07:28:32.003Z,102964.06
2019-02-27T07:31:04.058Z,102956.10
2019-02-27T07:33:37.971Z,102958.41
2019-02-27T07:36:09.891Z,102962.30
2019-02-27T07:38:41.845Z,102959.96
2019-02-27T07:41:17.831Z,102957.34
2019-02-27T07:43:48.500Z,102959.38
2019-02-27T07:46:22.462Z,102959.69
2019-02-27T07:48:56.426Z,102962.39
2019-02-27T07:51:27.859Z,102961.63
2019-02-27T07:53:59.889Z,102963.58
2019-02-27T07:56:31.916Z,102950.88
2019-02-27T07:59:03.883Z,102954.63
2019-02-27T08:01:43.542Z,102949.73
2019-02-27T08:04:10.707Z,102943.56
2019-02-27T08:06:42.660Z,102945.20
2019-02-27T08:09:14.796Z,102938.90
2019-02-27T08:11:47.864Z,102925.70
2019-02-27T08:14:19.937Z,102934.43
2019-02-27T08:16:51.893Z,102936.73
2019-02-27T08:19:24.211Z,102927.51
2019-02-27T08:21:56.245Z,102924.27
2019-02-27T08:24:28.562Z,102924.84
2019-02-27T08:27:01.011Z,102927.02
2019-02-27T08:29:32.994Z,102930.98
2019-02-27T08:32:05.562Z,102923.77
2019-02-27T08:34:38.056Z,102921.95
2019-02-27T08:37:10.012Z,102915.91
2019-02-27T08:39:41.993Z,102921.94
2019-02-27T08:42:15.720Z,102914.50
2019-02-27T08:44:48.151Z,102913.08
2019-02-27T08:47:20.475Z,102910.25
2019-02-27T08:49:57.746Z,102899.66
2019-02-27T08:52:26.114Z,102896.49
2019-02-27T08:54:58.089Z,102893.88
2019-02-27T08:57:30.333Z,102880.52
2019-02-27T09:00:02.329Z,102870.91
2019-02-27T09:02:34.312Z,102871.81
2019-02-27T09:05:09.590Z,102874.33
2019-02-27T09:07:43.080Z,102865.67
2019-02-27T09:10:23.168Z,102859.95
2019-02-27T09:13:04.779Z,102863.97
2019-02-27T09:15:28.751Z,102858.16
2019-02-27T09:18:03.583Z,102856.36
2019-02-27T09:20:35.568Z,102849.50
2019-02-27T09:23:07.662Z,102850.93
2019-02-27T09:25:39.697Z,102845.36
2019-02-27T09:28:11.646Z,102836.45
2019-02-27T09:30:43.606Z,102833.91
2019-02-27T09:33:17.006Z,102835.52
2019-02-27T09:35:49.298Z,102835.16
2019-02-27T09:38:24.134Z,102842.25
2019-02-27T09:40:55.182Z,102831.06
2019-02-27T09:43:27.946Z,102831.55
2019-02-27T09:45:59.993Z,102836.72
2019-02-27T09:48:33.453Z,102825.95
2019-02-27T09:51:07.884Z,102824.17
2019-02-27T09:53:39.859Z,102819.28
2019-02-27T09:56:11.892Z,102816.97
2019-02-27T09:58:45.645Z,102809.58
2019-02-27T10:01:18.716Z,102797.08
2019-02-27T10:03:52.046Z,102795.22
2019-02-27T10:06:24.636Z,102797.60
2019-02-27T10:08:59.030Z,102786.08
2019-02-27T10:11:30.663Z,102785.38
2019-02-27T10:14:02.708Z,102785.73
2019-02-27T10:16:35.383Z,102778.18
2019-02-27T10:19:07.508Z,102771.55
2019-02-27T10:21:41.253Z,102768.61
2019-02-27T10:24:13.366Z,102769.12
2019-02-27T10:26:45.424Z,102764.51
2019-02-27T10:29:18.991Z,102756.27
2019-02-27T10:31:51.172Z,102754.71
2019-02-27T10:34:23.209Z,102755.34
2019-02-27T10:36:55.411Z,102750.89
2019-02-27T10:39:27.548Z,102744.73
2019-02-27T10:41:59.605Z,102738.19
2019-02-27T10:44:33.806Z,102733.31
2019-02-27T10:47:05.987Z,102738.63
2019-02-27T10:49:38.338Z,102726.27
2019-02-27T10:52:10.527Z,102724.97
2019-02-27T10:54:42.702Z,102717.26
2019-02-27T10:57:14.809Z,102716.19
2019-02-27T10:59:46.885Z,102716.71
2019-02-27T11:02:19.011Z,102708.01
2019-02-27T11:04:51.111Z,102710.81
2019-02-27T11:07:23.085Z,102695.39
2019-02-27T11:09:56.826Z,102690.61
2019-02-27T11:12:29.428Z,102683.03
2019-02-27T11:15:02.217Z,102683.69
2019-02-27T11:17:34.367Z,102677.91
2019-02-27T11:20:09.028Z,102685.43
2019-02-27T11:22:41.145Z,102678.78
2019-02-27T11:25:23.387Z,102667.39
2019-02-27T11:27:55.353Z,102662.52
2019-02-27T11:30:39.073Z,102665.80
2019-02-27T11:33:11.301Z,102668.59
2019-02-27T11:35:43.267Z,102665.81
2019-02-27T11:38:15.251Z,102664.24
2019-02-27T11:40:49.187Z,102655.86
2019-02-27T11:43:20.924Z,102646.53
2019-02-27T11:45:57.531Z,102646.14
2019-02-27T11:48:28.159Z,102639.58
2019-02-27T11:51:00.147Z,102632.95
2019-02-27T11:53:35.699Z,102622.70
2019-02-27T11:56:05.894Z,102616.79
2019-02-27T11:58:39.064Z,102614.97
2019-02-27T12:01:12.174Z,102604.91
2019-02-27T12:03:45.921Z,102606.84
2019-02-27T12:06:18.220Z,102598.38
2019-02-27T12:08:50.182Z,102598.73
2019-02-27T12:11:22.514Z,102605.05
2019-02-27T12:13:54.875Z,102601.20
2019-02-27T12:16:27.157Z,102593.98
2019-02-27T12:18:59.428Z,102588.04
2019-02-27T12:21:32.215Z,102589.03
2019-02-27T12:24:05.413Z,102580.83
2019-02-27T12:26:38.253Z,102579.88
2019-02-27T12:29:10.923Z,102575.13
2019-02-27T12:31:47.948Z,102559.09
2019-02-27T12:34:16.638Z,102552.80
2019-02-27T12:36:52.274Z,102550.30
2019-02-27T12:39:22.443Z,102538.14
2019-02-27T12:41:54.806Z,102530.83
2019-02-27T12:44:26.875Z,102523.98
2019-02-27T12:46:58.851Z,102523.89
2019-02-27T12:49:30.815Z,102531.58
2019-02-27T12:52:02.801Z,102524.94
2019-02-27T12:54:34.941Z,102524.84
2019-02-27T12:57:06.987Z,102515.91
2019-02-27T12:59:38.945Z,102519.16
2019-02-27T13:02:10.994Z,102516.67
2019-02-27T13:04:42.987Z,102506.33
2019-02-27T13:07:14.949Z,102504.58
2019-02-27T13:09:46.916Z,102508.09
2019-02-27T13:12:19.203Z,102504.57
2019-02-27T13:14:51.161Z,102508.55
2019-02-27T13:17:23.621Z,102492.40
2019-02-27T13:19:55.602Z,102497.61
2019-02-27T13:22:29.181Z,102488.63
2019-02-27T13:25:01.659Z,102479.09
2019-02-27T13:27:33.612Z,102478.76
2019-02-27T13:30:16.327Z,102487.31
2019-02-27T13:32:48.323Z,102481.11
2019-02-27T13:35:22.997Z,102474.86
2019-02-27T13:37:54.823Z,102465.45
2019-02-27T13:40:29.304Z,102461.98
2019-02-27T13:43:01.507Z,102455.13
2019-02-27T13:45:34.078Z,102449.94
2019-02-27T13:48:06.190Z,102444.26
2019-02-27T13:50:38.274Z,102440.26
2019-02-27T13:53:10.246Z,102437.19
2019-02-27T13:55:42.222Z,102434.72
2019-02-27T13:58:14.188Z,102423.86
2019-02-27T14:00:46.168Z,102412.08
2019-02-27T14:03:18.412Z,102406.09
2019-02-27T14:05:50.405Z,102405.11
2019-02-27T14:08:22.402Z,102399.08
2019-02-27T14:10:54.383Z,102399.19
2019-02-27T14:13:26.356Z,102394.04
2019-02-27T14:16:00.953Z,102386.70
2019-02-27T14:18:32.652Z,102377.27
2019-02-27T14:21:04.695Z,102377.70
2019-02-27T14:23:38.207Z,102371.67
2019-02-27T14:26:10.507Z,102366.91
2019-02-27T14:28:42.549Z,102362.24
2019-02-27T14:31:14.530Z,102355.39
2019-02-27T14:33:47.113Z,102358.02
2019-02-27T14:36:20.110Z,102348.59
2019-02-27T14:38:53.355Z,102345.35
2019-02-27T14:41:26.044Z,102342.11
2019-02-27T14:43:58.625Z,102341.89
2019-02-27T14:46:30.611Z,102329.28
2019-02-27T14:49:02.576Z,102332.36
2019-02-27T14:51:34.558Z,102320.98
2019-02-27T14:54:06.542Z,102317.42
2019-02-27T14:56:41.720Z,102315.13
2019-02-27T14:59:12.191Z,102302.56
2019-02-27T15:01:48.397Z,102299.16
2019-02-27T15:04:17.944Z,102290.61
2019-02-27T15:06:51.254Z,102292.37
2019-02-27T15:09:23.461Z,102287.41
2019-02-27T15:11:55.459Z,102283.84
2019-02-27T15:14:27.662Z,102275.46
2019-02-27T15:16:59.724Z,102277.98
2019-02-27T15:19:31.695Z,102264.39
2019-02-27T15:22:03.696Z,102253.02
2019-02-27T15:24:35.869Z,102245.08
2019-02-27T15:27:08.019Z,102242.28
2019-02-27T15:29:40.321Z,102239.10
2019-02-27T15:32:12.382Z,102240.97
2019-02-27T15:34:45.927Z,102238.23
2019-02-27T15:37:18.440Z,102230.01
2019-02-27T15:39:51.969Z,102228.78
2019-02-27T15:42:24.159Z,102222.16
2019-02-27T15:44:56.429Z,102221.88
2019-02-27T15:47:30.735Z,102216.28
2019-02-27T15:50:02.746Z,102209.58
2019-02-27T15:52:34.728Z,102205.85
2019-02-27T15:55:10.179Z,102201.58
2019-02-27T15:57:42.163Z,102193.06
2019-02-27T16:00:25.490Z,102192.95
2019-02-27T16:02:57.762Z,102178.47
2019-02-27T16:05:31.264Z,102180.94
2019-02-27T16:08:03.812Z,102177.37
2019-02-27T16:10:35.794Z,102172.58
2019-02-27T16:13:07.932Z,102175.64
2019-02-27T16:15:40.197Z,102169.43
2019-02-27T16:18:13.776Z,102170.14
2019-02-27T16:20:47.051Z,102157.70
2019-02-27T16:23:19.480Z,102152.99
2019-02-27T16:25:53.746Z,102154.30
2019-02-27T16:28:25.473Z,102156.92
2019-02-27T16:30:57.538Z,102149.56
2019-02-27T16:33:29.942Z,102143.04
2019-02-27T16:36:01.920Z,102141.65
2019-02-27T16:38:33.891Z,102139.78
2019-02-27T16:41:06.126Z,102137.53
2019-02-27T16:43:38.115Z,102137.82
2019-02-27T16:46:10.594Z,102135.95
2019-02-27T16:48:43.057Z,102125.34
2019-02-27T16:51:15.504Z,102117.22
2019-02-27T16:53:52.360Z,102107.03
2019-02-27T16:56:21.829Z,102102.56
2019-02-27T16:58:53.826Z,102093.58
2019-02-27T17:01:26.276Z,102093.98
2019-02-27T17:04:00.570Z,102095.00
2019-02-27T17:06:32.706Z,102095.45
2019-02-27T17:09:07.186Z,102089.70
2019-02-27T17:11:39.794Z,102090.75
2019-02-27T17:14:11.782Z,102083.79
2019-02-27T17:16:44.937Z,102081.33
2019-02-27T17:19:17.635Z,102074.38
2019-02-27T17:21:49.974Z,102078.83
2019-02-27T17:24:22.102Z,102068.03
2019-02-27T17:26:54.089Z,102061.86
2019-02-27T17:29:26.760Z,102056.05
2019-02-27T17:31:58.940Z,102052.78
2019-02-27T17:34:30.901Z,102049.82
2019-02-27T17:37:03.543Z,102045.30
2019-02-27T17:39:36.881Z,102045.50
2019-02-27T17:42:09.145Z,102035.81
2019-02-27T17:44:41.108Z,102025.45
2019-02-27T17:47:13.083Z,102020.91
2019-02-27T17:49:45.063Z,102017.33
2019-02-27T17:52:17.185Z,102004.98
2019-02-27T17:54:49.148Z,101999.83
2019-02-27T17:57:25.041Z,101998.50
2019-02-27T17:59:54.970Z,101993.63
2019-02-27T18:02:26.941Z,101977.81
2019-02-27T18:04:59.285Z,101974.73
2019-02-27T18:07:34.417Z,101969.02
2019-02-27T18:10:08.928Z,101962.94
2019-02-27T18:12:41.029Z,101953.94
2019-02-27T18:15:21.840Z,101956.70
2019-02-27T18:17:53.966Z,101948.10
2019-02-27T18:20:25.929Z,101951.44
2019-02-27T18:22:57.891Z,101946.28
2019-02-27T18:25:29.892Z,101938.35
2019-02-27T18:28:01.851Z,101926.17
2019-02-27T18:30:34.284Z,101920.80
2019-02-27T18:33:06.248Z,101920.62
2019-02-27T18:35:38.219Z,101928.64
2019-02-27T18:38:10.178Z,101913.03
2019-02-27T18:40:42.886Z,101905.21
2019-02-27T18:43:15.824Z,101904.13
2019-02-27T18:45:48.236Z,101899.98
2019-02-27T18:48:21.501Z,101901.48
2019-02-27T18:50:55.937Z,101903.33
2019-02-27T18:53:27.363Z,101895.56
2019-02-27T18:56:01.986Z,101892.77
2019-02-27T18:58:33.092Z,101893.07
2019-02-27T19:01:09.483Z,101886.11
2019-02-27T19:03:40.417Z,101874.80
2019-02-27T19:06:13.120Z,101865.30
2019-02-27T19:08:45.366Z,101861.92
2019-02-27T19:11:17.326Z,101851.96
2019-02-27T19:13:49.431Z,101847.54
2019-02-27T19:16:21.810Z,101846.20
2019-02-27T19:18:53.784Z,101836.90
2019-02-27T19:21:25.779Z,101835.19
2019-02-27T19:23:57.734Z,101836.56
2019-02-27T19:26:29.847Z,101834.55
2019-02-27T19:29:01.803Z,101827.97
2019-02-27T19:31:34.140Z,101826.09
2019-02-27T19:34:07.451Z,101821.94
2019-02-27T19:36:40.391Z,101825.70
2019-02-27T19:39:12.511Z,101820.21
2019-02-27T19:41:44.615Z,101821.92
2019-02-27T19:44:16.655Z,101816.08
2019-02-27T19:46:48.968Z,101819.05
2019-02-27T19:49:21.642Z,101816.87
2019-02-27T19:51:54.897Z,101807.84
2019-02-27T19:54:27.274Z,101808.77
2019-02-27T19:56:59.226Z,101804.95
2019-02-27T19:59:31.213Z,101800.70
2019-02-27T20:02:03.506Z,101799.46
2019-02-27T20:04:35.570Z,101792.53
2019-02-27T20:07:07.860Z,101792.28
2019-02-27T20:09:39.819Z,101787.21
2019-02-27T20:12:12.808Z,101785.33
2019-02-27T20:14:46.083Z,101786.78
2019-02-27T20:17:18.482Z,101782.80
2019-02-27T20:19:51.663Z,101770.47
2019-02-27T20:22:23.730Z,101769.48
2019-02-27T20:24:55.770Z,101764.08
2019-02-27T20:27:27.730Z,101750.82
2019-02-27T20:29:59.704Z,101753.39
2019-02-27T20:32:32.107Z,101746.19
2019-02-27T20:35:04.850Z,101740.23
2019-02-27T20:37:37.159Z,101730.36
2019-02-27T20:40:14.392Z,101726.10
2019-02-27T20:42:49.766Z,101721.47
2019-02-27T20:45:26.627Z,101715.36
2019-02-27T20:48:01.696Z,101709.14
2019-02-27T20:50:39.613Z,101701.94
2019-02-27T20:53:14.241Z,101702.97
2019-02-27T20:55:46.478Z,101700.30
2019-02-27T20:58:19.423Z,101698.48
2019-02-27T21:00:51.379Z,101690.84
2019-02-27T21:03:26.673Z,101690.52
2019-02-27T21:05:57.418Z,101690.57
2019-02-27T21:08:36.134Z,101682.11
2019-02-27T21:11:07.771Z,101681.16
2019-02-27T21:13:39.761Z,101672.75
2019-02-27T21:16:11.715Z,101665.16
2019-02-27T21:18:43.759Z,101656.16
2019-02-27T21:21:16.964Z,101650.92
2019-02-27T21:23:49.387Z,101641.15
2019-02-27T21:26:22.971Z,101634.92
2019-02-27T21:28:58.535Z,101627.56
2019-02-27T21:31:29.151Z,101624.94
2019-02-27T21:34:01.109Z,101621.66
2019-02-27T21:36:36.296Z,101614.73
2019-02-27T21:39:07.700Z,101612.87
2019-02-27T21:41:42.322Z,101609.70
2019-02-27T21:44:13.416Z,101605.12
2019-02-27T21:46:47.235Z,101573.45
2019-02-27T21:49:19.048Z,101583.95
2019-02-27T21:51:51.027Z,101587.44
2019-02-27T21:54:23.010Z,101583.62
2019-02-27T21:56:55.198Z,101578.59
2019-02-27T21:59:27.809Z,101577.88
2019-02-27T22:01:59.802Z,101574.06
2019-02-27T22:04:31.775Z,101576.08
2019-02-27T22:07:03.808Z,101575.86
2019-02-27T22:09:35.797Z,101571.72
2019-02-27T22:12:08.035Z,101568.50
2019-02-27T22:14:40.024Z,101566.97
2019-02-27T22:17:11.986Z,101560.53
2019-02-27T22:19:43.953Z,101565.87
2019-02-27T22:22:15.939Z,101571.39
2019-02-27T22:24:47.909Z,101565.05
2019-02-27T22:27:19.884Z,101561.98
2019-02-27T22:29:51.939Z,101561.17
2019-02-27T22:32:23.896Z,101556.05
2019-02-27T22:34:55.898Z,101547.31
2019-02-27T22:37:27.862Z,101542.77
2019-02-27T22:39:59.878Z,101541.23
2019-02-27T22:42:32.226Z,101547.95
2019-02-27T22:45:05.733Z,101539.49
2019-02-27T22:47:37.732Z,101537.04
2019-02-27T22:50:13.601Z,101540.95
2019-02-27T22:52:45.668Z,101542.25
2019-02-27T22:55:17.649Z,101531.73
2019-02-27T22:57:49.685Z,101522.52
2019-02-27T23:00:51.522Z,101514.52
2019-02-27T23:03:35.834Z,101510.05
2019-02-27T23:06:11.854Z,101510.70
2019-02-27T23:08:43.264Z,101499.02
2019-02-27T23:11:15.646Z,101497.81
2019-02-27T23:13:49.378Z,101493.95
2019-02-27T23:16:21.489Z,101492.58
2019-02-27T23:18:54.294Z,101488.00
2019-02-27T23:21:27.314Z,101478.38
2019-02-27T23:23:59.664Z,101474.67
2019-02-27T23:26:31.637Z,101473.20
2019-02-27T23:29:05.605Z,101456.35
2019-02-27T23:31:37.272Z,101459.98
2019-02-27T23:34:09.307Z,101453.50
2019-02-27T23:36:41.278Z,101435.51
2019-02-27T23:39:13.316Z,101430.55
2019-02-27T23:41:45.553Z,101427.25
2019-02-27T23:44:17.585Z,101428.78
2019-02-27T23:46:51.732Z,101424.53
2019-02-27T23:49:23.204Z,101422.84
2019-02-27T23:51:55.180Z,101422.08
2019-02-27T23:54:27.140Z,101411.06
2019-02-27T23:56:59.118Z,101410.34
2019-02-27T23:59:32.957Z,101402.27
